createdAt,value
2019-03-17T00:01:57.756Z,30.87
2019-03-17T00:04:31.535Z,50.33
2019-03-17T00:06:55.281Z,58.00
2019-03-17T00:09:24.524Z,46.30
2019-03-17T00:11:53.757Z,41.63
2019-03-17T00:14:23.099Z,34.70
2019-03-17T00:16:52.321Z,30.67
2019-03-17T00:19:21.703Z,37.97
2019-03-17T00:21:50.997Z,28.13
2019-03-17T00:24:20.407Z,37.17
2019-03-17T00:26:49.678Z,31.77
2019-03-17T00:29:19.495Z,34.13
2019-03-17T00:31:48.735Z,33.47
2019-03-17T00:34:17.984Z,34.67
2019-03-17T00:36:47.316Z,39.27
2019-03-17T00:39:16.557Z,41.20
2019-03-17T00:41:45.867Z,38.47
2019-03-17T00:44:15.135Z,43.97
2019-03-17T00:46:44.375Z,41.37
2019-03-17T00:49:13.617Z,33.57
2019-03-17T00:51:43.616Z,41.03
2019-03-17T00:54:12.875Z,35.23
2019-03-17T00:56:42.174Z,34.63
2019-03-17T00:59:11.484Z,32.70
2019-03-17T01:01:40.793Z,31.10
2019-03-17T01:04:10.046Z,31.10
2019-03-17T01:06:39.281Z,38.03
2019-03-17T01:09:08.634Z,60.03
2019-03-17T01:11:37.967Z,41.83
2019-03-17T01:14:07.205Z,39.83
2019-03-17T01:16:36.451Z,36.77
2019-03-17T01:19:05.864Z,36.77
2019-03-17T01:21:35.108Z,48.27
2019-03-17T01:24:04.363Z,41.97
2019-03-17T01:26:33.605Z,38.23
2019-03-17T01:29:02.919Z,38.23
2019-03-17T01:31:32.217Z,38.93
2019-03-17T01:34:02.763Z,34.83
2019-03-17T01:36:32.309Z,37.77
2019-03-17T01:39:01.550Z,29.37
2019-03-17T01:41:30.857Z,41.00
2019-03-17T01:44:00.553Z,33.77
2019-03-17T01:46:29.797Z,34.77
2019-03-17T01:48:59.038Z,33.63
2019-03-17T01:51:28.802Z,35.50
2019-03-17T01:53:58.146Z,32.80
2019-03-17T01:56:27.366Z,31.83
2019-03-17T01:58:58.395Z,28.40
2019-03-17T02:01:27.636Z,31.57
2019-03-17T02:03:57.463Z,27.47
2019-03-17T02:06:26.735Z,34.03
2019-03-17T02:08:55.977Z,30.70
2019-03-17T02:11:25.210Z,33.60
2019-03-17T02:13:54.488Z,26.33
2019-03-17T02:16:23.724Z,34.13
2019-03-17T02:18:53.022Z,30.13
2019-03-17T02:21:22.330Z,33.33
2019-03-17T02:23:51.639Z,32.13
2019-03-17T02:26:20.873Z,28.47
2019-03-17T02:28:50.152Z,32.60
2019-03-17T02:31:19.385Z,31.67
2019-03-17T02:33:48.812Z,30.27
2019-03-17T02:36:18.134Z,28.97
2019-03-17T02:38:47.443Z,26.83
2019-03-17T02:41:16.697Z,29.67
2019-03-17T02:43:46.021Z,27.70
2019-03-17T02:46:15.258Z,32.53
2019-03-17T02:48:44.497Z,36.90
2019-03-17T02:51:13.738Z,29.00
2019-03-17T02:53:42.981Z,35.63
2019-03-17T02:56:12.294Z,30.53
2019-03-17T02:58:41.564Z,26.53
2019-03-17T03:01:10.782Z,29.77
2019-03-17T03:03:40.489Z,36.73
2019-03-17T03:06:09.851Z,60.37
2019-03-17T03:08:39.160Z,37.67
2019-03-17T03:11:08.469Z,31.07
2019-03-17T03:13:37.710Z,36.03
2019-03-17T03:16:07.041Z,33.20
2019-03-17T03:18:36.275Z,34.97
2019-03-17T03:21:05.596Z,37.20
2019-03-17T03:23:34.937Z,35.10
2019-03-17T03:26:04.164Z,33.97
2019-03-17T03:28:33.410Z,39.90
2019-03-17T03:31:02.748Z,39.73
2019-03-17T03:33:31.990Z,38.00
2019-03-17T03:36:10.593Z,42.80
2019-03-17T03:38:32.362Z,34.50
2019-03-17T03:41:01.665Z,43.07
2019-03-17T03:43:30.890Z,41.43
2019-03-17T03:46:00.214Z,44.97
2019-03-17T03:48:29.469Z,47.73
2019-03-17T03:50:58.690Z,46.03
2019-03-17T03:53:28.010Z,42.60
2019-03-17T03:55:57.261Z,40.73
2019-03-17T03:58:26.492Z,41.70
2019-03-17T04:00:55.734Z,47.70
2019-03-17T04:03:25.125Z,40.97
2019-03-17T04:05:54.377Z,41.23
2019-03-17T04:08:23.686Z,42.80
2019-03-17T04:10:52.937Z,46.87
2019-03-17T04:13:22.180Z,39.97
2019-03-17T04:15:51.479Z,47.73
2019-03-17T04:18:20.752Z,48.40
2019-03-17T04:20:49.990Z,46.37
2019-03-17T04:23:19.308Z,56.10
2019-03-17T04:25:48.548Z,46.67
2019-03-17T04:28:17.763Z,53.17
2019-03-17T04:30:47.108Z,46.33
2019-03-17T04:33:17.225Z,45.70
2019-03-17T04:35:46.459Z,42.17
2019-03-17T04:38:15.690Z,44.43
2019-03-17T04:40:45.041Z,44.87
2019-03-17T04:43:14.290Z,45.03
2019-03-17T04:45:43.605Z,43.47
2019-03-17T04:48:12.845Z,49.37
2019-03-17T04:50:42.173Z,50.87
2019-03-17T04:53:11.338Z,48.77
2019-03-17T04:55:40.574Z,50.07
2019-03-17T04:58:09.818Z,52.27
2019-03-17T05:00:39.148Z,69.13
2019-03-17T05:03:08.441Z,77.03
2019-03-17T05:05:37.747Z,71.47
2019-03-17T05:08:08.470Z,81.33
2019-03-17T05:10:38.182Z,69.57
2019-03-17T05:13:07.415Z,59.80
2019-03-17T05:15:36.703Z,75.20
2019-03-17T05:18:05.941Z,71.87
2019-03-17T05:20:35.173Z,83.57
2019-03-17T05:23:05.903Z,91.87
2019-03-17T05:25:35.610Z,65.07
2019-03-17T05:28:04.942Z,58.90
2019-03-17T05:30:34.206Z,216.70
2019-03-17T05:33:03.867Z,100.90
2019-03-17T05:35:33.180Z,82.13
2019-03-17T05:38:02.502Z,72.53
2019-03-17T05:40:31.898Z,65.73
2019-03-17T05:43:01.643Z,54.70
2019-03-17T05:45:30.871Z,61.83
2019-03-17T05:48:00.130Z,58.43
2019-03-17T05:50:29.495Z,160.03
2019-03-17T05:52:58.739Z,159.03
2019-03-17T05:55:28.005Z,100.10
2019-03-17T05:57:57.320Z,202.37
2019-03-17T06:00:26.700Z,124.30
2019-03-17T06:02:56.023Z,139.10
2019-03-17T06:05:25.537Z,208.33
2019-03-17T06:07:54.989Z,63.90
2019-03-17T06:10:24.320Z,81.97
2019-03-17T06:12:53.630Z,60.80
2019-03-17T06:15:22.967Z,64.30
2019-03-17T06:17:52.303Z,63.50
2019-03-17T06:20:21.627Z,74.83
2019-03-17T06:22:51.253Z,52.80
2019-03-17T06:25:20.525Z,41.10
2019-03-17T06:27:49.788Z,53.07
2019-03-17T06:30:19.106Z,58.23
2019-03-17T06:32:48.422Z,57.93
2019-03-17T06:35:17.676Z,57.53
2019-03-17T06:37:47.659Z,55.20
2019-03-17T06:40:16.975Z,50.30
2019-03-17T06:42:46.229Z,48.37
2019-03-17T06:45:15.547Z,50.17
2019-03-17T06:47:44.803Z,49.57
2019-03-17T06:50:14.080Z,52.37
2019-03-17T06:52:43.790Z,51.40
2019-03-17T06:55:13.477Z,52.13
2019-03-17T06:57:42.797Z,50.73
2019-03-17T07:00:12.283Z,51.30
2019-03-17T07:02:41.525Z,51.27
2019-03-17T07:05:10.727Z,48.97
2019-03-17T07:07:44.305Z,48.20
2019-03-17T07:10:11.603Z,51.23
2019-03-17T07:12:40.949Z,49.13
2019-03-17T07:15:10.242Z,44.47
2019-03-17T07:17:39.622Z,49.37
2019-03-17T07:20:10.094Z,50.93
2019-03-17T07:22:39.331Z,43.40
2019-03-17T07:25:09.529Z,40.07
2019-03-17T07:27:38.971Z,46.60
2019-03-17T07:30:09.360Z,45.50
2019-03-17T07:32:38.628Z,47.67
2019-03-17T07:35:07.955Z,40.93
2019-03-17T07:37:38.208Z,94.40
2019-03-17T07:40:08.705Z,53.30
2019-03-17T07:42:38.798Z,37.37
2019-03-17T07:45:08.243Z,43.83
2019-03-17T07:47:37.511Z,34.30
2019-03-17T07:50:08.201Z,36.53
2019-03-17T07:52:37.502Z,34.37
2019-03-17T07:55:07.789Z,28.67
2019-03-17T07:57:37.100Z,40.90
2019-03-17T08:00:06.811Z,61.40
2019-03-17T08:02:36.143Z,27.83
2019-03-17T08:05:06.178Z,39.37
2019-03-17T08:07:35.522Z,38.33
2019-03-17T08:10:05.356Z,29.70
2019-03-17T08:12:35.199Z,27.90
2019-03-17T08:15:04.486Z,26.30
2019-03-17T08:17:34.201Z,22.97
2019-03-17T08:20:03.692Z,19.00
2019-03-17T08:22:33.021Z,20.03
2019-03-17T08:25:02.268Z,22.63
2019-03-17T08:27:32.478Z,18.53
2019-03-17T08:30:01.724Z,18.97
2019-03-17T08:32:31.064Z,22.23
2019-03-17T08:35:00.397Z,18.37
2019-03-17T08:37:29.754Z,15.03
2019-03-17T08:39:59.067Z,15.80
2019-03-17T08:42:28.344Z,25.93
2019-03-17T08:44:57.715Z,31.47
2019-03-17T08:47:27.050Z,23.07
2019-03-17T08:49:56.372Z,21.37
2019-03-17T08:52:25.771Z,24.63
2019-03-17T08:54:55.727Z,22.97
2019-03-17T08:57:25.110Z,24.70
2019-03-17T08:59:54.454Z,20.33
2019-03-17T09:02:23.828Z,18.67
2019-03-17T09:04:53.172Z,20.00
2019-03-17T09:07:22.511Z,11.83
2019-03-17T09:09:53.137Z,18.30
2019-03-17T09:12:22.780Z,11.57
2019-03-17T09:14:52.105Z,15.63
2019-03-17T09:17:21.900Z,12.83
2019-03-17T09:19:51.239Z,16.40
2019-03-17T09:22:22.306Z,21.17
2019-03-17T09:24:51.683Z,14.90
2019-03-17T09:27:21.038Z,22.93
2019-03-17T09:29:50.914Z,16.13
2019-03-17T09:32:20.236Z,11.30
2019-03-17T09:34:49.494Z,11.67
2019-03-17T09:37:18.861Z,8.87
2019-03-17T09:39:48.207Z,10.97
2019-03-17T09:42:17.837Z,10.73
2019-03-17T09:44:47.188Z,10.87
2019-03-17T09:47:16.505Z,8.67
2019-03-17T09:49:45.753Z,9.83
2019-03-17T09:52:15.204Z,10.63
2019-03-17T09:54:44.533Z,10.90
2019-03-17T09:57:13.786Z,9.27
2019-03-17T09:59:43.053Z,12.17
2019-03-17T10:02:12.290Z,8.90
2019-03-17T10:04:41.816Z,8.67
2019-03-17T10:07:11.266Z,8.70
2019-03-17T10:09:40.677Z,7.20
2019-03-17T10:12:09.998Z,16.47
2019-03-17T10:14:39.414Z,10.07
2019-03-17T10:17:08.773Z,8.27
2019-03-17T10:19:38.069Z,7.70
2019-03-17T10:22:07.315Z,8.80
2019-03-17T10:24:37.001Z,32.53
2019-03-17T10:27:06.257Z,23.67
2019-03-17T10:29:35.709Z,24.23
2019-03-17T10:32:05.015Z,10.37
2019-03-17T10:34:34.334Z,10.60
2019-03-17T10:37:03.602Z,7.10
2019-03-17T10:39:32.979Z,8.57
2019-03-17T10:42:02.749Z,8.60
2019-03-17T10:44:32.207Z,13.73
2019-03-17T10:47:01.547Z,16.33
2019-03-17T10:49:30.927Z,7.40
2019-03-17T10:52:01.265Z,9.33
2019-03-17T10:54:30.644Z,8.03
2019-03-17T10:57:00.046Z,8.20
2019-03-17T10:59:29.780Z,8.00
2019-03-17T11:01:59.127Z,6.53
2019-03-17T11:04:28.498Z,6.50
2019-03-17T11:06:58.399Z,6.87
2019-03-17T11:09:27.761Z,6.83
2019-03-17T11:11:58.033Z,10.17
2019-03-17T11:14:27.362Z,6.00
2019-03-17T11:16:56.748Z,8.13
2019-03-17T11:19:26.750Z,7.70
2019-03-17T11:21:56.075Z,7.47
2019-03-17T11:24:25.431Z,7.40
2019-03-17T11:26:55.841Z,7.13
2019-03-17T11:29:25.319Z,5.20
2019-03-17T11:31:55.067Z,4.83
2019-03-17T11:34:24.450Z,5.77
2019-03-17T11:36:53.859Z,6.60
2019-03-17T11:39:23.255Z,8.97
2019-03-17T11:41:52.639Z,6.50
2019-03-17T11:44:22.618Z,5.03
2019-03-17T11:46:52.111Z,6.93
2019-03-17T11:49:21.686Z,7.37
2019-03-17T11:51:51.047Z,6.87
2019-03-17T11:54:20.510Z,5.70
2019-03-17T11:56:49.946Z,5.87
2019-03-17T11:59:19.390Z,12.37
2019-03-17T12:01:49.333Z,6.00
2019-03-17T12:04:18.715Z,4.33
2019-03-17T12:06:48.061Z,6.03
2019-03-17T12:09:28.600Z,4.07
2019-03-17T12:11:48.410Z,5.37
2019-03-17T12:14:17.785Z,4.50
2019-03-17T12:16:47.089Z,4.60
2019-03-17T12:19:16.456Z,3.53
2019-03-17T12:21:46.539Z,4.47
2019-03-17T12:24:15.965Z,4.73
2019-03-17T12:26:45.331Z,4.83
2019-03-17T12:29:14.932Z,5.07
2019-03-17T12:31:44.277Z,4.50
2019-03-17T12:34:14.164Z,5.90
2019-03-17T12:36:43.989Z,14.97
2019-03-17T12:39:13.334Z,26.33
2019-03-17T12:41:42.729Z,18.43
2019-03-17T12:44:12.759Z,74.10
2019-03-17T12:46:42.041Z,58.97
2019-03-17T12:49:12.259Z,42.57
2019-03-17T12:51:42.197Z,40.30
2019-03-17T12:54:12.035Z,25.03
2019-03-17T12:56:41.335Z,7.07
2019-03-17T12:59:10.682Z,5.47
2019-03-17T13:01:39.990Z,7.97
2019-03-17T13:04:09.609Z,5.07
2019-03-17T13:06:39.092Z,5.27
2019-03-17T13:09:08.407Z,5.97
2019-03-17T13:11:37.731Z,5.67
2019-03-17T13:14:07.179Z,4.80
2019-03-17T13:16:36.391Z,5.17
2019-03-17T13:19:05.720Z,4.80
2019-03-17T13:21:35.100Z,4.77
2019-03-17T13:24:04.412Z,6.83
2019-03-17T13:26:33.720Z,4.93
2019-03-17T13:29:03.130Z,4.77
2019-03-17T13:31:32.530Z,3.93
2019-03-17T13:34:01.822Z,4.80
2019-03-17T13:36:31.140Z,3.60
2019-03-17T13:39:00.419Z,3.93
2019-03-17T13:41:29.734Z,4.20
2019-03-17T13:43:59.153Z,3.20
2019-03-17T13:46:28.991Z,2.93
2019-03-17T13:48:58.239Z,3.80
2019-03-17T13:51:27.589Z,3.33
2019-03-17T13:53:56.940Z,3.70
2019-03-17T13:56:26.194Z,4.77
2019-03-17T13:58:55.511Z,4.43
2019-03-17T14:01:24.913Z,3.73
2019-03-17T14:03:55.039Z,2.63
2019-03-17T14:06:27.632Z,3.00
2019-03-17T14:08:56.996Z,3.83
2019-03-17T14:11:26.240Z,4.03
2019-03-17T14:13:55.650Z,4.53
2019-03-17T14:16:24.890Z,5.63
2019-03-17T14:18:54.139Z,5.03
2019-03-17T14:21:24.585Z,5.93
2019-03-17T14:23:54.127Z,7.87
2019-03-17T14:26:23.401Z,7.37
2019-03-17T14:28:52.727Z,9.23
2019-03-17T14:31:24.161Z,10.13
2019-03-17T14:33:53.599Z,2.93
2019-03-17T14:36:22.883Z,4.23
2019-03-17T14:38:52.187Z,7.63
2019-03-17T14:41:21.455Z,3.47
2019-03-17T14:43:50.745Z,3.97
2019-03-17T14:46:19.986Z,5.90
2019-03-17T14:48:49.690Z,8.40
2019-03-17T14:51:18.867Z,4.27
2019-03-17T14:53:48.209Z,6.70
2019-03-17T14:56:17.475Z,8.10
2019-03-17T14:58:47.170Z,7.43
2019-03-17T15:01:16.425Z,4.20
2019-03-17T15:03:45.669Z,6.37
2019-03-17T15:06:15.267Z,7.57
2019-03-17T15:08:44.529Z,8.50
2019-03-17T15:11:13.844Z,8.63
2019-03-17T15:13:43.159Z,7.87
2019-03-17T15:16:12.443Z,7.17
2019-03-17T15:18:42.111Z,10.23
2019-03-17T15:21:11.433Z,10.53
2019-03-17T15:23:40.697Z,8.80
2019-03-17T15:26:09.948Z,7.23
2019-03-17T15:28:39.639Z,7.40
2019-03-17T15:31:11.863Z,7.30
2019-03-17T15:33:40.903Z,18.67
2019-03-17T15:36:10.165Z,15.03
2019-03-17T15:38:39.501Z,20.80
2019-03-17T15:41:17.985Z,14.20
2019-03-17T15:43:39.670Z,7.40
2019-03-17T15:46:09.029Z,11.63
2019-03-17T15:48:38.195Z,129.47
2019-03-17T15:51:19.144Z,8.70
2019-03-17T15:53:38.330Z,6.40
2019-03-17T15:56:07.593Z,38.27
2019-03-17T15:58:36.902Z,22.60
2019-03-17T16:01:06.552Z,12.93
2019-03-17T16:03:35.862Z,10.80
2019-03-17T16:06:05.222Z,10.43
2019-03-17T16:08:34.549Z,14.00
2019-03-17T16:11:03.872Z,11.93
2019-03-17T16:13:33.197Z,7.57
2019-03-17T16:16:02.647Z,6.67
2019-03-17T16:18:32.467Z,8.07
2019-03-17T16:21:01.670Z,8.23
2019-03-17T16:23:31.197Z,7.33
2019-03-17T16:26:01.325Z,9.80
2019-03-17T16:28:30.627Z,8.50
2019-03-17T16:31:00.057Z,9.97
2019-03-17T16:33:29.371Z,8.97
2019-03-17T16:35:58.723Z,14.87
2019-03-17T16:38:29.136Z,13.57
2019-03-17T16:40:58.514Z,12.83
2019-03-17T16:43:27.860Z,16.90
2019-03-17T16:45:57.179Z,19.33
2019-03-17T16:48:26.615Z,16.20
2019-03-17T16:50:56.242Z,27.77
2019-03-17T16:53:25.590Z,22.50
2019-03-17T16:55:54.994Z,34.23
2019-03-17T16:58:24.645Z,40.57
2019-03-17T17:00:54.097Z,56.70
2019-03-17T17:03:23.471Z,58.13
2019-03-17T17:05:54.662Z,59.10
2019-03-17T17:08:24.817Z,65.73
2019-03-17T17:10:54.127Z,33.77
2019-03-17T17:13:23.455Z,19.87
2019-03-17T17:15:52.812Z,22.27
2019-03-17T17:18:22.040Z,15.23
2019-03-17T17:20:51.386Z,12.27
2019-03-17T17:23:20.757Z,11.13
2019-03-17T17:25:54.278Z,16.17
2019-03-17T17:28:23.802Z,13.60
2019-03-17T17:30:53.135Z,18.07
2019-03-17T17:33:23.395Z,25.47
2019-03-17T17:35:53.370Z,40.10
2019-03-17T17:38:22.672Z,15.97
2019-03-17T17:40:52.005Z,15.30
2019-03-17T17:43:21.256Z,10.17
2019-03-17T17:45:50.523Z,16.80
2019-03-17T17:48:20.219Z,11.70
2019-03-17T17:50:49.616Z,24.10
2019-03-17T17:53:18.890Z,42.37
2019-03-17T17:55:48.203Z,46.77
2019-03-17T17:58:17.574Z,33.20
2019-03-17T18:00:47.930Z,24.10
2019-03-17T18:03:17.403Z,16.13
2019-03-17T18:05:46.728Z,14.67
2019-03-17T18:08:16.032Z,25.93
2019-03-17T18:10:45.362Z,16.07
2019-03-17T18:13:14.718Z,15.60
2019-03-17T18:15:44.480Z,26.80
2019-03-17T18:18:13.839Z,45.73
2019-03-17T18:20:43.199Z,54.50
2019-03-17T18:23:17.989Z,51.83
2019-03-17T18:25:43.519Z,48.40
2019-03-17T18:28:12.849Z,59.13
2019-03-17T18:30:42.165Z,47.93
2019-03-17T18:33:11.471Z,47.10
2019-03-17T18:35:41.611Z,56.97
2019-03-17T18:38:10.877Z,51.20
2019-03-17T18:40:42.223Z,65.53
2019-03-17T18:43:11.101Z,67.57
2019-03-17T18:45:42.579Z,107.97
2019-03-17T18:48:11.327Z,132.27
2019-03-17T18:50:40.715Z,158.97
2019-03-17T18:53:10.055Z,181.97
2019-03-17T18:55:39.519Z,120.50
2019-03-17T18:58:08.853Z,97.27
2019-03-17T19:00:38.146Z,66.93
2019-03-17T19:03:07.381Z,54.13
2019-03-17T19:05:37.094Z,48.47
2019-03-17T19:08:06.454Z,39.37
2019-03-17T19:10:35.803Z,36.40
2019-03-17T19:13:05.046Z,35.07
2019-03-17T19:15:34.412Z,37.97
2019-03-17T19:18:03.740Z,47.23
2019-03-17T19:20:33.059Z,49.53
2019-03-17T19:23:02.341Z,50.77
2019-03-17T19:25:31.617Z,54.40
2019-03-17T19:28:00.954Z,51.67
2019-03-17T19:30:30.318Z,38.47
2019-03-17T19:32:59.595Z,36.07
2019-03-17T19:35:29.567Z,33.27
2019-03-17T19:37:59.245Z,31.37
2019-03-17T19:40:28.610Z,32.53
2019-03-17T19:42:59.654Z,40.10
2019-03-17T19:45:29.023Z,195.70
2019-03-17T19:47:58.409Z,356.57
2019-03-17T19:50:27.925Z,408.40
2019-03-17T19:52:57.319Z,171.73
2019-03-17T19:55:26.746Z,26.67
2019-03-17T19:57:57.694Z,18.63
2019-03-17T20:00:27.305Z,187.37
2019-03-17T20:02:56.683Z,347.43
2019-03-17T20:05:26.111Z,472.83
2019-03-17T20:07:55.835Z,61.03
2019-03-17T20:10:28.576Z,75.50
2019-03-17T20:13:10.292Z,34.07
2019-03-17T20:15:29.879Z,58.27
2019-03-17T20:17:59.402Z,45.87
2019-03-17T20:20:28.820Z,50.17
2019-03-17T20:22:58.306Z,44.67
2019-03-17T20:25:27.686Z,45.23
2019-03-17T20:27:57.135Z,41.00
2019-03-17T20:30:26.479Z,40.83
2019-03-17T20:32:55.822Z,41.93
2019-03-17T20:35:25.706Z,123.97
2019-03-17T20:37:54.974Z,92.37
2019-03-17T20:40:25.006Z,61.30
2019-03-17T20:42:54.394Z,65.97
2019-03-17T20:45:23.829Z,70.23
2019-03-17T20:47:53.297Z,40.80
2019-03-17T20:50:22.614Z,60.27
2019-03-17T20:52:52.481Z,55.70
2019-03-17T20:55:21.888Z,50.93
2019-03-17T20:57:52.223Z,110.93
2019-03-17T21:00:21.648Z,73.77
2019-03-17T21:02:51.050Z,46.50
2019-03-17T21:05:20.389Z,44.97
2019-03-17T21:07:49.695Z,105.67
2019-03-17T21:10:19.286Z,81.03
2019-03-17T21:12:48.655Z,68.57
2019-03-17T21:15:19.080Z,28.97
2019-03-17T21:17:48.504Z,40.37
2019-03-17T21:20:18.396Z,35.23
2019-03-17T21:22:48.134Z,49.03
2019-03-17T21:25:17.569Z,42.83
2019-03-17T21:27:46.999Z,54.23
2019-03-17T21:30:20.736Z,35.03
2019-03-17T21:32:50.118Z,34.60
2019-03-17T21:35:19.866Z,33.70
2019-03-17T21:37:49.473Z,52.83
2019-03-17T21:40:18.825Z,42.00
2019-03-17T21:42:48.279Z,20.80
2019-03-17T21:45:17.602Z,25.07
2019-03-17T21:47:46.871Z,59.23
2019-03-17T21:50:16.647Z,64.33
2019-03-17T21:52:45.908Z,72.83
2019-03-17T21:55:15.174Z,82.07
2019-03-17T21:57:44.507Z,82.90
2019-03-17T22:00:14.937Z,86.73
2019-03-17T22:02:44.322Z,78.23
2019-03-17T22:05:14.282Z,73.73
2019-03-17T22:07:50.047Z,95.50
2019-03-17T22:10:15.360Z,93.03
2019-03-17T22:12:44.662Z,85.17
2019-03-17T22:15:13.998Z,66.27
2019-03-17T22:17:43.253Z,73.30
2019-03-17T22:20:12.784Z,42.40
2019-03-17T22:22:42.063Z,47.23
2019-03-17T22:25:11.325Z,36.40
2019-03-17T22:27:40.592Z,46.97
2019-03-17T22:30:11.319Z,48.37
2019-03-17T22:32:40.637Z,24.53
2019-03-17T22:35:10.072Z,20.90
2019-03-17T22:37:39.433Z,23.20
2019-03-17T22:40:10.299Z,23.30
2019-03-17T22:42:39.590Z,48.27
2019-03-17T22:45:09.541Z,37.40
2019-03-17T22:47:38.780Z,46.40
2019-03-17T22:50:08.658Z,37.50
2019-03-17T22:52:38.222Z,52.47
2019-03-17T22:55:09.065Z,73.53
2019-03-17T22:57:38.336Z,41.83
2019-03-17T23:00:11.809Z,25.13
2019-03-17T23:02:41.235Z,24.37
2019-03-17T23:05:10.666Z,22.10
2019-03-17T23:07:40.096Z,24.93
2019-03-17T23:10:10.182Z,21.83
2019-03-17T23:12:39.742Z,26.30
2019-03-17T23:15:09.883Z,27.37
2019-03-17T23:17:39.297Z,20.63
2019-03-17T23:20:09.790Z,12.03
2019-03-17T23:22:39.243Z,11.73
2019-03-17T23:25:08.966Z,12.40
2019-03-17T23:27:38.388Z,7.83
2019-03-17T23:30:08.574Z,8.70
2019-03-17T23:32:37.983Z,8.37
2019-03-17T23:35:07.791Z,9.23
2019-03-17T23:37:38.229Z,7.30
2019-03-17T23:40:09.686Z,11.03
2019-03-17T23:42:38.758Z,9.30
2019-03-17T23:45:08.557Z,10.87
2019-03-17T23:47:39.694Z,12.43
2019-03-17T23:50:09.488Z,10.57
2019-03-17T23:52:38.878Z,9.47
2019-03-17T23:55:10.053Z,8.07
2019-03-17T23:57:39.495Z,9.43
